Wetterdaten: Woche 07.03.16 - 13.03.16 (KW10)
Datum Zeit Temp. A. Feuchte A. Luftdruck Regen Wind Richtung Sonnenschein ET UV Solar Taupunkt Windchill Windben Empfang
07.03.2016 00:00 1,7 C 77 % 1003,8 hPa 0,0 l/m 3,4 km/h (1 Bft) S-SW 0,00 h 0,000 mm 0,0 UV-I 0 W/m -2,0 C 1,7 C 4,7 km/h (1 Bft) 99,10 %
07.03.2016 01:00 1,8 C 77 % 1003,8 hPa 0,0 l/m 5,4 km/h (1 Bft) SW 0,00 h 0,000 mm 0,0 UV-I 0 W/m -1,8 C 1,7 C 7,2 km/h (2 Bft) 98,29 %
07.03.2016 02:00 1,9 C 77 % 1004,1 hPa 0,0 l/m 4,4 km/h (1 Bft) SW 0,00 h 0,000 mm 0,0 UV-I 0 W/m -1,7 C 1,9 C 6,0 km/h (2 Bft) 99,13 %
07.03.2016 03:00 1,8 C 79 % 1004,0 hPa 0,0 l/m 2,0 km/h (1 Bft) SW 0,00 h 0,000 mm 0,0 UV-I 0 W/m -1,6 C 1,8 C 3,1 km/h (1 Bft) 98,42 %
07.03.2016 04:00 1,7 C 80 % 1004,1 hPa 0,0 l/m 3,1 km/h (1 Bft) SW 0,00 h 0,000 mm 0,0 UV-I 0 W/m -1,4 C 1,7 C 4,5 km/h (1 Bft) 98,60 %
07.03.2016 05:00 1,9 C 81 % 1004,2 hPa 0,0 l/m 4,7 km/h (1 Bft) W-SW 0,00 h 0,000 mm 0,0 UV-I 0 W/m -1,1 C 1,7 C 6,8 km/h (2 Bft) 98,58 %
07.03.2016 06:00 1,4 C 86 % 1004,3 hPa 0,0 l/m 0,6 km/h (0 Bft) W-SW 0,00 h 0,000 mm 0,0 UV-I 7 W/m -0,7 C 1,4 C 1,7 km/h (1 Bft) 98,67 %
07.03.2016 07:00 1,5 C 86 % 1004,6 hPa 0,0 l/m 4,3 km/h (1 Bft) SW 0,00 h 0,000 mm 0,0 UV-I 33 W/m -0,6 C 1,5 C 6,6 km/h (2 Bft) 98,77 %
07.03.2016 08:00 2,1 C 86 % 1004,8 hPa 0,0 l/m 5,4 km/h (1 Bft) W-SW 0,15 h 0,025 mm 0,0 UV-I 112 W/m -0,1 C 1,8 C 7,9 km/h (2 Bft) 98,17 %
07.03.2016 09:00 3,0 C 80 % 1004,8 hPa 0,0 l/m 6,0 km/h (2 Bft) W-SW 0,12 h 0,051 mm 0,6 UV-I 199 W/m -0,1 C 2,5 C 9,2 km/h (2 Bft) 98,67 %
07.03.2016 10:00 3,7 C 76 % 1004,6 hPa 0,0 l/m 2,8 km/h (1 Bft) W-NW 0,58 h 0,076 mm 1,2 UV-I 344 W/m -0,2 C 3,6 C 4,7 km/h (1 Bft) 98,52 %
07.03.2016 11:00 4,3 C 73 % 1004,4 hPa 0,0 l/m 2,4 km/h (1 Bft) NW 0,10 h 0,153 mm 1,2 UV-I 244 W/m -0,1 C 4,3 C 4,6 km/h (1 Bft) 98,78 %
07.03.2016 12:00 4,8 C 69 % 1004,1 hPa 0,0 l/m 2,6 km/h (1 Bft) W-NW 0,13 h 0,101 mm 1,2 UV-I 259 W/m -0,4 C 4,7 C 4,9 km/h (1 Bft) 98,24 %
07.03.2016 13:00 5,4 C 65 % 1003,6 hPa 0,0 l/m 2,9 km/h (1 Bft) NW 0,42 h 0,127 mm 1,4 UV-I 385 W/m -0,7 C 5,3 C 5,3 km/h (1 Bft) 98,35 %
07.03.2016 14:00 5,4 C 63 % 1003,2 hPa 0,0 l/m 4,7 km/h (1 Bft) O-NO 0,00 h 0,178 mm 0,6 UV-I 163 W/m -1,1 C 5,1 C 7,0 km/h (2 Bft) 98,65 %
07.03.2016 15:00 5,3 C 62 % 1003,4 hPa 0,0 l/m 3,8 km/h (1 Bft) O-NO 0,00 h 0,076 mm 0,0 UV-I 98 W/m -1,4 C 5,3 C 5,6 km/h (1 Bft) 98,87 %
07.03.2016 16:00 5,0 C 65 % 1003,4 hPa 0,0 l/m 3,5 km/h (1 Bft) S-SO 0,00 h 0,051 mm 0,0 UV-I 53 W/m -1,0 C 4,9 C 5,2 km/h (1 Bft) 98,70 %
07.03.2016 17:00 4,4 C 68 % 1003,8 hPa 0,0 l/m 0,7 km/h (0 Bft) S-SO 0,00 h 0,026 mm 0,0 UV-I 12 W/m -0,9 C 4,4 C 1,5 km/h (1 Bft) 98,81 %
07.03.2016 18:00 3,8 C 74 % 1004,4 hPa 0,0 l/m 3,2 km/h (1 Bft) S-SO 0,00 h 0,000 mm 0,0 UV-I 0 W/m -0,3 C 3,8 C 4,7 km/h (1 Bft) 98,47 %
07.03.2016 19:00 2,5 C 85 % 1004,9 hPa 0,4 l/m 2,2 km/h (1 Bft) S 0,00 h 0,000 mm 0,0 UV-I 0 W/m 0,2 C 2,5 C 3,8 km/h (1 Bft) 98,78 %
07.03.2016 20:00 1,0 C 93 % 1005,4 hPa 0,2 l/m 0,5 km/h (0 Bft) S 0,00 h 0,000 mm 0,0 UV-I 0 W/m 0,0 C 1,0 C 1,0 km/h (0 Bft) 98,20 %
07.03.2016 21:00 0,3 C 96 % 1005,8 hPa 0,0 l/m 0,6 km/h (0 Bft) S 0,00 h 0,000 mm 0,0 UV-I 0 W/m -0,3 C 0,3 C 1,2 km/h (1 Bft) 99,00 %
07.03.2016 22:00 0,3 C 96 % 1005,9 hPa 0,0 l/m 0,6 km/h (0 Bft) S 0,00 h 0,000 mm 0,0 UV-I 0 W/m -0,2 C 0,3 C 1,0 km/h (0 Bft) 98,33 %
07.03.2016 23:00 0,3 C 97 % 1006,1 hPa 0,0 l/m 0,0 km/h (0 Bft) N 0,00 h 0,000 mm 0,0 UV-I 0 W/m -0,1 C 0,3 C 0,0 km/h (0 Bft) 99,13 %
08.03.2016 00:00 0,3 C 97 % 1006,5 hPa 0,0 l/m 0,0 km/h (0 Bft) N 0,00 h 0,000 mm 0,0 UV-I 0 W/m -0,1 C 0,3 C 0,0 km/h (0 Bft) 98,05 %
08.03.2016 01:00 0,3 C 97 % 1006,7 hPa 0,0 l/m 0,0 km/h (0 Bft) N 0,00 h 0,000 mm 0,0 UV-I 0 W/m -0,1 C 0,3 C 0,0 km/h (0 Bft) 99,04 %
08.03.2016 02:00 0,3 C 97 % 1006,9 hPa 0,0 l/m 0,0 km/h (0 Bft) N 0,00 h 0,000 mm 0,0 UV-I 0 W/m -0,1 C 0,3 C 0,1 km/h (0 Bft) 97,96 %
08.03.2016 03:00 0,4 C 97 % 1006,9 hPa 0,0 l/m 0,1 km/h (0 Bft) N 0,00 h 0,000 mm 0,0 UV-I 0 W/m -0,0 C 0,4 C 0,5 km/h (0 Bft) 99,30 %
08.03.2016 04:00 0,4 C 97 % 1007,2 hPa 0,0 l/m 0,0 km/h (0 Bft) N 0,00 h 0,000 mm 0,0 UV-I 0 W/m 0,0 C 0,4 C 0,1 km/h (0 Bft) 97,79 %
08.03.2016 05:00 0,4 C 97 % 1007,8 hPa 0,0 l/m 0,1 km/h (0 Bft) S 0,00 h 0,000 mm 0,0 UV-I 0 W/m 0,1 C 0,4 C 0,3 km/h (0 Bft) 98,92 %
08.03.2016 06:00 0,4 C 98 % 1008,6 hPa 0,0 l/m 0,0 km/h (0 Bft) N 0,00 h 0,000 mm 0,0 UV-I 5 W/m 0,2 C 0,4 C 0,1 km/h (0 Bft) 97,46 %
08.03.2016 07:00 0,6 C 98 % 1009,4 hPa 0,0 l/m 1,6 km/h (1 Bft) S 0,00 h 0,000 mm 0,0 UV-I 9 W/m 0,3 C 0,6 C 2,6 km/h (1 Bft) 99,29 %
08.03.2016 08:00 1,0 C 97 % 1010,3 hPa 0,2 l/m 1,8 km/h (1 Bft) S-SW 0,00 h 0,000 mm 0,0 UV-I 43 W/m 0,7 C 1,0 C 3,1 km/h (1 Bft) 97,86 %
08.03.2016 09:00 1,7 C 96 % 1011,0 hPa 1,6 l/m 3,4 km/h (1 Bft) W-SW 0,00 h 0,025 mm 0,0 UV-I 92 W/m 1,2 C 1,7 C 5,0 km/h (1 Bft) 99,40 %
08.03.2016 10:00 2,2 C 95 % 1011,7 hPa 1,6 l/m 4,1 km/h (1 Bft) W 0,00 h 0,026 mm 0,5 UV-I 109 W/m 1,5 C 2,2 C 6,1 km/h (2 Bft) 97,79 %
08.03.2016 11:00 2,6 C 95 % 1012,3 hPa 1,8 l/m 4,2 km/h (1 Bft) W 0,00 h 0,051 mm 0,8 UV-I 200 W/m 1,9 C 2,5 C 7,3 km/h (2 Bft) 98,91 %
08.03.2016 12:00 3,0 C 93 % 1012,8 hPa 0,4 l/m 6,9 km/h (2 Bft) W-SW 0,00 h 0,076 mm 0,9 UV-I 209 W/m 1,9 C 2,0 C 10,8 km/h (2 Bft) 98,07 %
08.03.2016 13:00 3,7 C 90 % 1013,2 hPa 0,0 l/m 7,1 km/h (2 Bft) W 0,00 h 0,076 mm 0,9 UV-I 222 W/m 2,2 C 2,7 C 11,1 km/h (2 Bft) 99,56 %
08.03.2016 14:00 4,3 C 85 % 1013,5 hPa 0,0 l/m 7,7 km/h (2 Bft) W-SW 0,42 h 0,102 mm 0,9 UV-I 272 W/m 2,1 C 2,9 C 12,0 km/h (2 Bft) 98,18 %
08.03.2016 15:00 3,9 C 84 % 1013,9 hPa 0,0 l/m 8,9 km/h (2 Bft) W-SW 0,12 h 0,127 mm 0,6 UV-I 162 W/m 1,4 C 1,8 C 12,8 km/h (3 Bft) 99,22 %
08.03.2016 16:00 3,7 C 85 % 1014,4 hPa 0,2 l/m 4,5 km/h (1 Bft) W-SW 0,58 h 0,076 mm 0,0 UV-I 133 W/m 1,5 C 3,4 C 7,2 km/h (2 Bft) 97,67 %
08.03.2016 17:00 3,3 C 89 % 1015,0 hPa 0,0 l/m 6,7 km/h (2 Bft) S 0,02 h 0,051 mm 0,0 UV-I 23 W/m 1,7 C 2,1 C 9,6 km/h (2 Bft) 99,32 %
08.03.2016 18:00 2,6 C 90 % 1015,8 hPa 0,2 l/m 6,5 km/h (2 Bft) S-SO 0,00 h 0,000 mm 0,0 UV-I 0 W/m 1,1 C 1,8 C 10,2 km/h (2 Bft) 97,63 %
08.03.2016 19:00 1,2 C 94 % 1016,7 hPa 1,0 l/m 6,3 km/h (2 Bft) S-SW 0,00 h 0,000 mm 0,0 UV-I 0 W/m 0,3 C 0,5 C 9,3 km/h (2 Bft) 99,48 %
08.03.2016 20:00 0,8 C 96 % 1017,1 hPa 0,6 l/m 7,5 km/h (2 Bft) W-SW 0,00 h 0,000 mm 0,0 UV-I 0 W/m 0,3 C -0,6 C 10,5 km/h (2 Bft) 97,44 %
08.03.2016 21:00 0,9 C 96 % 1017,5 hPa 0,4 l/m 5,6 km/h (1 Bft) SW 0,00 h 0,000 mm 0,0 UV-I 0 W/m 0,4 C 0,6 C 7,8 km/h (2 Bft) 99,21 %
08.03.2016 22:00 1,0 C 97 % 1017,6 hPa 0,0 l/m 4,9 km/h (1 Bft) SW 0,00 h 0,000 mm 0,0 UV-I 0 W/m 0,5 C 0,9 C 6,8 km/h (2 Bft) 97,67 %
08.03.2016 23:00 1,2 C 96 % 1017,6 hPa 0,2 l/m 3,5 km/h (1 Bft) W 0,00 h 0,000 mm 0,0 UV-I 0 W/m 0,6 C 1,2 C 5,0 km/h (1 Bft) 98,95 %
09.03.2016 00:00 0,9 C 97 % 1017,6 hPa 0,0 l/m 1,0 km/h (0 Bft) W 0,00 h 0,000 mm 0,0 UV-I 0 W/m 0,4 C 0,9 C 2,0 km/h (1 Bft) 97,56 %
09.03.2016 01:00 0,7 C 97 % 1017,5 hPa 0,2 l/m 1,0 km/h (0 Bft) SW 0,00 h 0,000 mm 0,0 UV-I 0 W/m 0,2 C 0,7 C 1,8 km/h (1 Bft) 99,46 %
09.03.2016 02:00 0,3 C 97 % 1017,0 hPa 0,0 l/m 1,2 km/h (1 Bft) SW 0,00 h 0,000 mm 0,0 UV-I 0 W/m -0,1 C 0,3 C 2,1 km/h (1 Bft) 97,81 %
09.03.2016 03:00 0,2 C 97 % 1016,5 hPa 0,0 l/m 0,7 km/h (0 Bft) SW 0,00 h 0,000 mm 0,0 UV-I 0 W/m -0,1 C 0,2 C 1,4 km/h (1 Bft) 99,09 %
09.03.2016 04:00 0,2 C 98 % 1016,0 hPa 0,0 l/m 0,1 km/h (0 Bft) SW 0,00 h 0,000 mm 0,0 UV-I 0 W/m -0,1 C 0,2 C 0,2 km/h (0 Bft) 97,79 %
09.03.2016 05:00 0,1 C 98 % 1015,5 hPa 0,0 l/m 1,8 km/h (1 Bft) NO 0,00 h 0,000 mm 0,0 UV-I 0 W/m -0,1 C 0,1 C 2,7 km/h (1 Bft) 99,12 %
09.03.2016 06:00 0,2 C 98 % 1015,2 hPa 0,0 l/m 3,2 km/h (1 Bft) NO 0,02 h 0,000 mm 0,0 UV-I 11 W/m -0,1 C 0,2 C 4,5 km/h (1 Bft) 97,83 %
09.03.2016 07:00 0,5 C 98 % 1014,7 hPa 0,2 l/m 9,4 km/h (2 Bft) O-NO 0,00 h 0,000 mm 0,0 UV-I 31 W/m 0,2 C -2,3 C 13,0 km/h (3 Bft) 99,38 %
09.03.2016 08:00 1,0 C 97 % 1013,9 hPa 0,6 l/m 17,8 km/h (3 Bft) O-NO 0,03 h 0,000 mm 0,5 UV-I 92 W/m 0,5 C -7,2 C 22,9 km/h (4 Bft) 98,23 %
09.03.2016 09:00 1,8 C 93 % 1013,0 hPa 1,4 l/m 22,0 km/h (4 Bft) NO 0,50 h 0,025 mm 0,9 UV-I 283 W/m 0,9 C -7,9 C 28,2 km/h (4 Bft) 99,47 %
09.03.2016 10:00 2,9 C 88 % 1012,0 hPa 2,0 l/m 26,6 km/h (4 Bft) NO 0,88 h 0,102 mm 1,6 UV-I 447 W/m 1,2 C -8,2 C 34,0 km/h (5 Bft) 98,45 %
09.03.2016 11:00 4,1 C 81 % 1011,0 hPa 0,2 l/m 26,9 km/h (4 Bft) O-NO 1,00 h 0,178 mm 2,1 UV-I 587 W/m 1,1 C -6,7 C 34,5 km/h (5 Bft) 98,92 %
09.03.2016 12:00 5,1 C 79 % 1009,8 hPa 0,0 l/m 25,4 km/h (4 Bft) O-NO 1,00 h 0,254 mm 2,2 UV-I 611 W/m 1,8 C -4,9 C 33,4 km/h (5 Bft) 98,95 %
09.03.2016 13:00 6,3 C 75 % 1008,6 hPa 0,0 l/m 25,9 km/h (4 Bft) O-NO 1,00 h 0,279 mm 1,9 UV-I 542 W/m 2,2 C -3,4 C 33,2 km/h (5 Bft) 98,22 %
09.03.2016 14:00 7,1 C 71 % 1007,8 hPa 0,0 l/m 25,6 km/h (4 Bft) O-NO 1,00 h 0,280 mm 1,4 UV-I 482 W/m 2,2 C -2,2 C 33,0 km/h (5 Bft) 99,17 %
09.03.2016 15:00 7,2 C 69 % 1007,1 hPa 0,0 l/m 26,3 km/h (4 Bft) O-NO 1,00 h 0,279 mm 0,7 UV-I 317 W/m 1,9 C -2,2 C 34,3 km/h (5 Bft) 98,00 %
09.03.2016 16:00 6,6 C 71 % 1006,5 hPa 0,0 l/m 25,2 km/h (4 Bft) O-NO 1,00 h 0,203 mm 0,5 UV-I 190 W/m 1,9 C -2,7 C 32,8 km/h (5 Bft) 99,13 %
09.03.2016 17:00 5,3 C 77 % 1006,4 hPa 0,0 l/m 24,7 km/h (4 Bft) O-NO 0,42 h 0,153 mm 0,0 UV-I 41 W/m 1,5 C -4,3 C 32,7 km/h (5 Bft) 98,68 %
09.03.2016 18:00 4,2 C 81 % 1006,7 hPa 0,0 l/m 18,3 km/h (3 Bft) O-NO 0,00 h 0,076 mm 0,0 UV-I 6 W/m 1,2 C -3,4 C 24,3 km/h (4 Bft) 99,09 %
09.03.2016 19:00 3,6 C 84 % 1006,8 hPa 0,0 l/m 18,4 km/h (3 Bft) O-NO 0,00 h 0,025 mm 0,0 UV-I 0 W/m 1,0 C -4,3 C 24,8 km/h (4 Bft) 98,36 %
09.03.2016 20:00 3,1 C 85 % 1007,0 hPa 0,0 l/m 17,6 km/h (3 Bft) O-NO 0,00 h 0,026 mm 0,0 UV-I 0 W/m 0,9 C -4,4 C 23,4 km/h (4 Bft) 99,44 %
09.03.2016 21:00 2,6 C 88 % 1007,2 hPa 0,0 l/m 13,3 km/h (3 Bft) O-NO 0,00 h 0,025 mm 0,0 UV-I 0 W/m 0,8 C -2,6 C 18,2 km/h (3 Bft) 98,12 %
09.03.2016 22:00 1,9 C 90 % 1007,5 hPa 0,0 l/m 6,3 km/h (2 Bft) NO 0,00 h 0,025 mm 0,0 UV-I 0 W/m 0,5 C 1,2 C 8,6 km/h (2 Bft) 99,27 %
09.03.2016 23:00 0,9 C 92 % 1007,9 hPa 0,0 l/m 2,6 km/h (1 Bft) N-NO 0,00 h 0,000 mm 0,0 UV-I 0 W/m -0,2 C 0,9 C 3,9 km/h (1 Bft) 97,72 %
10.03.2016 00:00 0,5 C 93 % 1008,1 hPa 0,0 l/m 2,0 km/h (1 Bft) O-NO 0,00 h 0,000 mm 0,0 UV-I 0 W/m -0,5 C 0,5 C 3,2 km/h (1 Bft) 99,49 %
10.03.2016 01:00 -0,7 C 95 % 1008,6 hPa 0,0 l/m 1,0 km/h (0 Bft) O-NO 0,00 h 0,000 mm 0,0 UV-I 0 W/m -1,4 C -0,7 C 1,7 km/h (1 Bft) 97,38 %
10.03.2016 02:00 -1,1 C 96 % 1008,9 hPa 0,0 l/m 1,5 km/h (1 Bft) S 0,00 h 0,000 mm 0,0 UV-I 0 W/m -1,6 C -1,1 C 2,4 km/h (1 Bft) 99,48 %
10.03.2016 03:00 -1,4 C 96 % 1009,4 hPa 0,0 l/m 1,7 km/h (1 Bft) S-SO 0,00 h 0,000 mm 0,0 UV-I 0 W/m -2,0 C -1,4 C 2,9 km/h (1 Bft) 97,93 %
10.03.2016 04:00 -1,7 C 96 % 1010,2 hPa 0,0 l/m 2,9 km/h (1 Bft) S 0,00 h 0,000 mm 0,0 UV-I 0 W/m -2,3 C -1,7 C 4,2 km/h (1 Bft) 98,94 %
10.03.2016 05:00 -1,7 C 97 % 1011,2 hPa 0,0 l/m 1,7 km/h (1 Bft) S-SW 0,00 h 0,000 mm 0,0 UV-I 0 W/m -2,2 C -1,7 C 2,7 km/h (1 Bft) 98,85 %
10.03.2016 06:00 -1,0 C 97 % 1012,1 hPa 0,0 l/m 3,7 km/h (1 Bft) S 0,00 h 0,000 mm 0,0 UV-I 11 W/m -1,4 C -1,0 C 5,4 km/h (1 Bft) 98,29 %
10.03.2016 07:00 -0,2 C 97 % 1013,2 hPa 0,0 l/m 3,1 km/h (1 Bft) S-SW 0,00 h 0,000 mm 0,0 UV-I 46 W/m -0,5 C -0,2 C 4,7 km/h (1 Bft) 98,70 %
10.03.2016 08:00 0,6 C 98 % 1014,1 hPa 0,0 l/m 1,7 km/h (1 Bft) S 0,00 h 0,025 mm 0,0 UV-I 85 W/m 0,3 C 0,6 C 2,9 km/h (1 Bft) 98,84 %
10.03.2016 09:00 1,4 C 95 % 1014,9 hPa 0,0 l/m 2,6 km/h (1 Bft) SW 0,00 h 0,026 mm 0,6 UV-I 136 W/m 0,6 C 1,4 C 4,5 km/h (1 Bft) 98,58 %
10.03.2016 10:00 2,1 C 91 % 1015,5 hPa 0,0 l/m 1,5 km/h (1 Bft) O 0,03 h 0,051 mm 0,9 UV-I 198 W/m 0,7 C 2,1 C 2,8 km/h (1 Bft) 98,63 %
10.03.2016 11:00 3,4 C 87 % 1016,0 hPa 0,0 l/m 4,3 km/h (1 Bft) SO 0,63 h 0,076 mm 1,8 UV-I 435 W/m 1,5 C 3,2 C 6,7 km/h (2 Bft) 99,08 %
10.03.2016 12:00 4,8 C 82 % 1015,9 hPa 0,0 l/m 4,5 km/h (1 Bft) S-SO 0,97 h 0,178 mm 2,2 UV-I 552 W/m 2,0 C 4,3 C 8,0 km/h (2 Bft) 98,45 %
10.03.2016 13:00 6,2 C 78 % 1015,6 hPa 0,0 l/m 2,0 km/h (1 Bft) N-NO 0,93 h 0,228 mm 1,9 UV-I 488 W/m 2,6 C 6,2 C 3,6 km/h (1 Bft) 97,97 %
10.03.2016 14:00 7,0 C 73 % 1015,5 hPa 0,0 l/m 2,3 km/h (1 Bft) W-NW 0,97 h 0,203 mm 1,4 UV-I 449 W/m 2,5 C 7,0 C 4,2 km/h (1 Bft) 99,51 %
10.03.2016 15:00 7,8 C 70 % 1015,7 hPa 0,0 l/m 1,6 km/h (1 Bft) NW 0,93 h 0,204 mm 0,8 UV-I 311 W/m 2,6 C 7,8 C 3,3 km/h (1 Bft) 97,48 %
10.03.2016 16:00 7,6 C 70 % 1015,8 hPa 0,0 l/m 2,6 km/h (1 Bft) S 0,52 h 0,152 mm 0,5 UV-I 141 W/m 2,5 C 7,6 C 4,2 km/h (1 Bft) 99,19 %
10.03.2016 17:00 7,1 C 74 % 1016,3 hPa 0,0 l/m 4,3 km/h (1 Bft) S 0,87 h 0,076 mm 0,0 UV-I 60 W/m 2,7 C 7,1 C 6,6 km/h (2 Bft) 97,62 %
10.03.2016 18:00 5,2 C 83 % 1017,0 hPa 0,0 l/m 0,4 km/h (0 Bft) S 0,00 h 0,051 mm 0,0 UV-I 6 W/m 2,5 C 5,2 C 1,4 km/h (1 Bft) 99,40 %
10.03.2016 19:00 3,7 C 88 % 1018,0 hPa 0,0 l/m 1,7 km/h (1 Bft) S 0,00 h 0,000 mm 0,0 UV-I 0 W/m 1,8 C 3,7 C 2,7 km/h (1 Bft) 97,44 %
10.03.2016 20:00 4,2 C 87 % 1018,7 hPa 0,0 l/m 1,8 km/h (1 Bft) S 0,00 h 0,000 mm 0,0 UV-I 0 W/m 2,3 C 4,2 C 3,1 km/h (1 Bft) 99,18 %
10.03.2016 21:00 4,5 C 87 % 1019,0 hPa 0,0 l/m 2,4 km/h (1 Bft) SW 0,00 h 0,000 mm 0,0 UV-I 0 W/m 2,5 C 4,5 C 3,5 km/h (1 Bft) 98,36 %
10.03.2016 22:00 4,3 C 88 % 1019,3 hPa 0,0 l/m 3,0 km/h (1 Bft) SW 0,00 h 0,000 mm 0,0 UV-I 0 W/m 2,5 C 4,3 C 4,4 km/h (1 Bft) 99,05 %
10.03.2016 23:00 3,9 C 90 % 1019,6 hPa 0,0 l/m 1,6 km/h (1 Bft) SW 0,00 h 0,000 mm 0,0 UV-I 0 W/m 2,3 C 3,9 C 2,7 km/h (1 Bft) 98,38 %
11.03.2016 00:00 3,4 C 92 % 1019,8 hPa 0,0 l/m 2,1 km/h (1 Bft) S 0,00 h 0,000 mm 0,0 UV-I 0 W/m 2,2 C 3,4 C 3,4 km/h (1 Bft) 97,40 %
11.03.2016 01:00 3,4 C 91 % 1020,2 hPa 0,0 l/m 2,6 km/h (1 Bft) S 0,00 h 0,000 mm 0,0 UV-I 0 W/m 2,1 C 3,4 C 3,9 km/h (1 Bft) 98,74 %
11.03.2016 02:00 3,4 C 91 % 1020,3 hPa 0,0 l/m 3,3 km/h (1 Bft) S 0,00 h 0,000 mm 0,0 UV-I 0 W/m 2,1 C 3,4 C 4,6 km/h (1 Bft) 98,92 %
11.03.2016 03:00 3,3 C 91 % 1020,5 hPa 0,0 l/m 3,0 km/h (1 Bft) S 0,00 h 0,000 mm 0,0 UV-I 0 W/m 2,0 C 3,3 C 4,3 km/h (1 Bft) 98,50 %
11.03.2016 04:00 3,0 C 92 % 1020,7 hPa 0,0 l/m 2,3 km/h (1 Bft) S 0,00 h 0,000 mm 0,0 UV-I 0 W/m 1,8 C 3,0 C 3,6 km/h (1 Bft) 98,31 %
11.03.2016 05:00 2,2 C 93 % 1020,9 hPa 0,0 l/m 2,5 km/h (1 Bft) S 0,00 h 0,000 mm 0,0 UV-I 0 W/m 1,3 C 2,2 C 3,5 km/h (1 Bft) 98,85 %
11.03.2016 06:00 2,0 C 94 % 1021,1 hPa 0,0 l/m 3,4 km/h (1 Bft) S 0,00 h 0,000 mm 0,0 UV-I 16 W/m 1,1 C 1,9 C 5,1 km/h (1 Bft) 98,34 %
11.03.2016 07:00 2,6 C 93 % 1021,6 hPa 0,0 l/m 1,9 km/h (1 Bft) S 0,00 h 0,000 mm 0,0 UV-I 62 W/m 1,6 C 2,6 C 3,0 km/h (1 Bft) 98,90 %
11.03.2016 08:00 3,5 C 91 % 1022,1 hPa 0,0 l/m 1,2 km/h (1 Bft) S 0,00 h 0,025 mm 0,0 UV-I 88 W/m 2,2 C 3,5 C 2,3 km/h (1 Bft) 98,54 %
11.03.2016 09:00 4,5 C 87 % 1022,3 hPa 0,0 l/m 1,0 km/h (0 Bft) W-SW 0,00 h 0,026 mm 0,6 UV-I 162 W/m 2,5 C 4,5 C 2,0 km/h (1 Bft) 99,17 %
11.03.2016 10:00 5,5 C 82 % 1022,4 hPa 0,0 l/m 2,0 km/h (1 Bft) NO 0,00 h 0,076 mm 0,8 UV-I 189 W/m 2,6 C 5,5 C 3,5 km/h (1 Bft) 98,08 %
11.03.2016 11:00 5,9 C 77 % 1022,7 hPa 0,0 l/m 2,6 km/h (1 Bft) O-NO 0,00 h 0,076 mm 0,9 UV-I 171 W/m 2,3 C 5,9 C 4,1 km/h (1 Bft) 99,28 %
11.03.2016 12:00 6,2 C 76 % 1022,6 hPa 0,0 l/m 2,0 km/h (1 Bft) O-NO 0,00 h 0,076 mm 0,8 UV-I 163 W/m 2,3 C 6,2 C 3,5 km/h (1 Bft) 97,67 %
11.03.2016 13:00 6,3 C 76 % 1022,3 hPa 0,0 l/m 3,3 km/h (1 Bft) O-SO 0,00 h 0,077 mm 0,6 UV-I 125 W/m 2,4 C 6,3 C 4,9 km/h (1 Bft) 99,53 %
11.03.2016 14:00 6,2 C 76 % 1022,3 hPa 0,0 l/m 2,9 km/h (1 Bft) SO 0,00 h 0,050 mm 0,0 UV-I 88 W/m 2,3 C 6,2 C 4,7 km/h (1 Bft) 98,07 %
11.03.2016 15:00 6,2 C 76 % 1022,5 hPa 0,0 l/m 2,5 km/h (1 Bft) SO 0,00 h 0,051 mm 0,0 UV-I 68 W/m 2,4 C 6,2 C 4,2 km/h (1 Bft) 99,47 %
11.03.2016 16:00 6,2 C 77 % 1022,7 hPa 0,0 l/m 1,7 km/h (1 Bft) SO 0,00 h 0,026 mm 0,0 UV-I 45 W/m 2,4 C 6,2 C 2,9 km/h (1 Bft) 97,83 %
11.03.2016 17:00 5,8 C 80 % 1022,9 hPa 0,0 l/m 1,7 km/h (1 Bft) SO 0,00 h 0,025 mm 0,0 UV-I 9 W/m 2,5 C 5,8 C 3,1 km/h (1 Bft) 99,11 %
11.03.2016 18:00 5,1 C 85 % 1023,4 hPa 0,0 l/m 3,5 km/h (1 Bft) S-SO 0,00 h 0,000 mm 0,0 UV-I 0 W/m 2,8 C 5,0 C 5,6 km/h (1 Bft) 98,08 %
11.03.2016 19:00 4,7 C 87 % 1023,8 hPa 0,0 l/m 3,2 km/h (1 Bft) S-SO 0,00 h 0,000 mm 0,0 UV-I 0 W/m 2,8 C 4,7 C 5,7 km/h (1 Bft) 99,49 %
11.03.2016 20:00 4,6 C 88 % 1024,0 hPa 0,0 l/m 5,7 km/h (1 Bft) S 0,00 h 0,000 mm 0,0 UV-I 0 W/m 2,9 C 4,4 C 9,1 km/h (2 Bft) 97,97 %
11.03.2016 21:00 4,5 C 89 % 1024,3 hPa 0,0 l/m 6,0 km/h (2 Bft) S 0,00 h 0,000 mm 0,0 UV-I 0 W/m 2,9 C 4,3 C 9,2 km/h (2 Bft) 99,28 %
11.03.2016 22:00 4,2 C 92 % 1024,4 hPa 0,2 l/m 4,1 km/h (1 Bft) S 0,00 h 0,000 mm 0,0 UV-I 0 W/m 3,0 C 4,0 C 6,6 km/h (2 Bft) 98,26 %
11.03.2016 23:00 4,0 C 95 % 1024,4 hPa 0,2 l/m 3,0 km/h (1 Bft) S 0,00 h 0,000 mm 0,0 UV-I 0 W/m 3,2 C 4,0 C 4,7 km/h (1 Bft) 99,11 %
12.03.2016 00:00 3,9 C 96 % 1024,5 hPa 0,0 l/m 2,9 km/h (1 Bft) S 0,00 h 0,000 mm 0,0 UV-I 0 W/m 3,3 C 3,9 C 4,1 km/h (1 Bft) 97,79 %
12.03.2016 01:00 3,8 C 96 % 1024,6 hPa 0,2 l/m 1,8 km/h (1 Bft) S-SW 0,00 h 0,000 mm 0,0 UV-I 0 W/m 3,3 C 3,8 C 2,9 km/h (1 Bft) 99,65 %
12.03.2016 02:00 3,8 C 96 % 1024,3 hPa 0,0 l/m 0,3 km/h (0 Bft) N-NW 0,00 h 0,000 mm 0,0 UV-I 0 W/m 3,3 C 3,8 C 0,9 km/h (0 Bft) 97,90 %
12.03.2016 03:00 3,7 C 96 % 1024,2 hPa 0,0 l/m 0,8 km/h (0 Bft) N-NO 0,00 h 0,000 mm 0,0 UV-I 0 W/m 3,0 C 3,7 C 1,4 km/h (1 Bft) 99,10 %
12.03.2016 04:00 3,8 C 93 % 1024,2 hPa 0,0 l/m 3,2 km/h (1 Bft) N-NO 0,00 h 0,000 mm 0,0 UV-I 0 W/m 2,7 C 3,7 C 5,0 km/h (1 Bft) 97,69 %
12.03.2016 05:00 3,6 C 92 % 1024,2 hPa 0,0 l/m 3,4 km/h (1 Bft) O-NO 0,00 h 0,000 mm 0,0 UV-I 0 W/m 2,4 C 3,6 C 4,9 km/h (1 Bft) 99,13 %
12.03.2016 06:00 3,6 C 90 % 1024,4 hPa 0,0 l/m 4,8 km/h (1 Bft) O-NO 0,00 h 0,000 mm 0,0 UV-I 5 W/m 2,1 C 3,6 C 6,5 km/h (2 Bft) 98,05 %
12.03.2016 07:00 3,6 C 90 % 1024,8 hPa 0,0 l/m 4,2 km/h (1 Bft) NO 0,00 h 0,000 mm 0,0 UV-I 11 W/m 2,0 C 3,6 C 5,7 km/h (1 Bft) 98,86 %
12.03.2016 08:00 3,7 C 90 % 1025,3 hPa 0,0 l/m 4,4 km/h (1 Bft) NO 0,00 h 0,000 mm 0,0 UV-I 22 W/m 2,1 C 3,7 C 6,3 km/h (2 Bft) 98,39 %
12.03.2016 09:00 3,8 C 90 % 1025,6 hPa 0,0 l/m 5,2 km/h (1 Bft) NO 0,00 h 0,025 mm 0,0 UV-I 38 W/m 2,3 C 3,7 C 7,1 km/h (2 Bft) 98,65 %
12.03.2016 10:00 4,0 C 89 % 1025,7 hPa 0,0 l/m 7,3 km/h (2 Bft) NO 0,00 h 0,026 mm 0,0 UV-I 70 W/m 2,4 C 2,9 C 10,3 km/h (2 Bft) 98,66 %
12.03.2016 11:00 4,4 C 88 % 1025,7 hPa 0,0 l/m 8,4 km/h (2 Bft) NO 0,00 h 0,025 mm 0,7 UV-I 113 W/m 2,6 C 2,7 C 12,6 km/h (3 Bft) 98,08 %
12.03.2016 12:00 4,8 C 85 % 1025,6 hPa 0,0 l/m 8,0 km/h (2 Bft) NO 0,00 h 0,051 mm 0,7 UV-I 112 W/m 2,6 C 3,3 C 11,8 km/h (2 Bft) 99,07 %
12.03.2016 13:00 5,2 C 83 % 1025,3 hPa 0,0 l/m 5,2 km/h (1 Bft) N-NO 0,00 h 0,051 mm 0,7 UV-I 135 W/m 2,6 C 4,8 C 8,4 km/h (2 Bft) 98,53 %
12.03.2016 14:00 5,4 C 82 % 1025,0 hPa 0,0 l/m 3,9 km/h (1 Bft) N-NO 0,00 h 0,051 mm 0,6 UV-I 119 W/m 2,5 C 5,2 C 6,3 km/h (2 Bft) 98,71 %
12.03.2016 15:00 5,5 C 81 % 1025,0 hPa 0,0 l/m 3,7 km/h (1 Bft) NO 0,00 h 0,050 mm 0,0 UV-I 69 W/m 2,4 C 5,4 C 5,8 km/h (2 Bft) 98,01 %
12.03.2016 16:00 5,5 C 80 % 1025,2 hPa 0,0 l/m 3,3 km/h (1 Bft) O-NO 0,00 h 0,026 mm 0,0 UV-I 38 W/m 2,3 C 5,5 C 4,9 km/h (1 Bft) 99,03 %
12.03.2016 17:00 5,1 C 82 % 1025,3 hPa 0,0 l/m 4,0 km/h (1 Bft) NO 0,00 h 0,025 mm 0,0 UV-I 9 W/m 2,4 C 4,9 C 5,8 km/h (2 Bft) 98,14 %
12.03.2016 18:00 4,6 C 85 % 1025,6 hPa 0,0 l/m 5,2 km/h (1 Bft) NO 0,00 h 0,000 mm 0,0 UV-I 0 W/m 2,3 C 4,2 C 7,5 km/h (2 Bft) 99,02 %
12.03.2016 19:00 4,3 C 87 % 1026,1 hPa 0,0 l/m 1,5 km/h (1 Bft) N-NO 0,00 h 0,000 mm 0,0 UV-I 0 W/m 2,3 C 4,3 C 3,0 km/h (1 Bft) 97,44 %
12.03.2016 20:00 4,2 C 88 % 1026,5 hPa 0,0 l/m 1,1 km/h (1 Bft) N-NO 0,00 h 0,000 mm 0,0 UV-I 0 W/m 2,4 C 4,2 C 2,3 km/h (1 Bft) 99,42 %
12.03.2016 21:00 4,0 C 90 % 1026,7 hPa 0,0 l/m 2,9 km/h (1 Bft) NO 0,00 h 0,000 mm 0,0 UV-I 0 W/m 2,6 C 3,9 C 4,4 km/h (1 Bft) 98,26 %
12.03.2016 22:00 3,7 C 93 % 1026,5 hPa 0,2 l/m 0,8 km/h (0 Bft) O 0,00 h 0,000 mm 0,0 UV-I 0 W/m 2,7 C 3,7 C 1,6 km/h (1 Bft) 99,71 %
12.03.2016 23:00 3,6 C 95 % 1026,4 hPa 0,0 l/m 0,4 km/h (0 Bft) O 0,00 h 0,000 mm 0,0 UV-I 0 W/m 2,8 C 3,6 C 0,7 km/h (0 Bft) 97,63 %
13.03.2016 00:00 3,4 C 96 % 1026,4 hPa 0,4 l/m 0,6 km/h (0 Bft) O 0,00 h 0,000 mm 0,0 UV-I 0 W/m 2,8 C 3,4 C 1,2 km/h (1 Bft) 96,59 %
13.03.2016 01:00 3,4 C 95 % 1026,4 hPa 0,0 l/m 2,2 km/h (1 Bft) N-NO 0,00 h 0,000 mm 0,0 UV-I 0 W/m 2,6 C 3,4 C 3,7 km/h (1 Bft) 97,87 %
13.03.2016 02:00 3,3 C 94 % 1026,3 hPa 0,2 l/m 2,8 km/h (1 Bft) NO 0,00 h 0,000 mm 0,0 UV-I 0 W/m 2,4 C 3,3 C 4,1 km/h (1 Bft) 99,14 %
13.03.2016 03:00 3,2 C 94 % 1026,3 hPa 0,0 l/m 3,2 km/h (1 Bft) N-NO 0,00 h 0,000 mm 0,0 UV-I 0 W/m 2,4 C 3,2 C 4,6 km/h (1 Bft) 96,99 %
13.03.2016 04:00 3,1 C 94 % 1026,3 hPa 0,0 l/m 1,9 km/h (1 Bft) N-NO 0,00 h 0,000 mm 0,0 UV-I 0 W/m 2,3 C 3,1 C 3,3 km/h (1 Bft) 98,91 %
13.03.2016 05:00 3,2 C 93 % 1026,6 hPa 0,0 l/m 5,5 km/h (1 Bft) NO 0,00 h 0,000 mm 0,0 UV-I 0 W/m 2,2 C 2,9 C 7,6 km/h (2 Bft) 97,94 %
13.03.2016 06:00 3,2 C 92 % 1026,8 hPa 0,0 l/m 6,3 km/h (2 Bft) NO 0,00 h 0,000 mm 0,0 UV-I 0 W/m 2,0 C 2,8 C 8,7 km/h (2 Bft) 99,34 %
13.03.2016 07:00 3,1 C 92 % 1027,2 hPa 0,2 l/m 5,5 km/h (1 Bft) O-NO 0,00 h 0,000 mm 0,0 UV-I 9 W/m 2,0 C 3,0 C 7,9 km/h (2 Bft) 98,33 %
13.03.2016 08:00 3,2 C 94 % 1027,7 hPa 0,2 l/m 7,6 km/h (2 Bft) N-NO 0,00 h 0,000 mm 0,0 UV-I 36 W/m 2,3 C 1,9 C 11,4 km/h (2 Bft) 99,45 %
13.03.2016 09:00 3,5 C 94 % 1028,0 hPa 0,0 l/m 6,1 km/h (2 Bft) NO 0,00 h 0,025 mm 0,5 UV-I 64 W/m 2,6 C 3,1 C 8,2 km/h (2 Bft) 97,50 %
13.03.2016 10:00 3,9 C 91 % 1028,3 hPa 0,0 l/m 7,4 km/h (2 Bft) O-NO 0,00 h 0,026 mm 0,5 UV-I 80 W/m 2,6 C 2,8 C 10,3 km/h (2 Bft) 99,37 %
13.03.2016 11:00 4,4 C 90 % 1028,4 hPa 0,0 l/m 6,6 km/h (2 Bft) O-NO 0,00 h 0,025 mm 0,7 UV-I 123 W/m 2,9 C 3,9 C 9,1 km/h (2 Bft) 97,77 %
13.03.2016 12:00 4,8 C 88 % 1028,4 hPa 0,0 l/m 6,9 km/h (2 Bft) O-NO 0,00 h 0,051 mm 0,8 UV-I 113 W/m 3,0 C 4,0 C 9,7 km/h (2 Bft) 99,42 %
13.03.2016 13:00 4,7 C 89 % 1028,1 hPa 0,0 l/m 4,5 km/h (1 Bft) O-SO 0,00 h 0,051 mm 0,6 UV-I 101 W/m 3,1 C 4,7 C 7,4 km/h (2 Bft) 97,95 %
13.03.2016 14:00 4,7 C 89 % 1028,0 hPa 0,0 l/m 2,9 km/h (1 Bft) SO 0,00 h 0,051 mm 0,6 UV-I 69 W/m 3,0 C 4,7 C 5,1 km/h (1 Bft) 98,86 %
13.03.2016 15:00 4,6 C 89 % 1027,9 hPa 0,0 l/m 2,7 km/h (1 Bft) SO 0,00 h 0,025 mm 0,0 UV-I 49 W/m 2,9 C 4,6 C 4,1 km/h (1 Bft) 97,91 %
13.03.2016 16:00 4,5 C 89 % 1027,8 hPa 0,0 l/m 1,9 km/h (1 Bft) O-SO 0,00 h 0,025 mm 0,0 UV-I 24 W/m 2,9 C 4,5 C 3,3 km/h (1 Bft) 99,02 %
13.03.2016 17:00 4,2 C 92 % 1028,1 hPa 0,2 l/m 0,4 km/h (0 Bft) O-SO 0,00 h 0,000 mm 0,0 UV-I 7 W/m 3,0 C 4,2 C 0,8 km/h (0 Bft) 98,05 %
13.03.2016 18:00 3,8 C 95 % 1028,4 hPa 0,0 l/m 0,4 km/h (0 Bft) O-SO 0,00 h 0,000 mm 0,0 UV-I 0 W/m 3,0 C 3,8 C 0,8 km/h (0 Bft) 99,45 %
13.03.2016 19:00 3,7 C 95 % 1028,6 hPa 0,0 l/m 0,0 km/h (0 Bft) N 0,00 h 0,000 mm 0,0 UV-I 0 W/m 3,0 C 3,7 C 0,1 km/h (0 Bft) 97,57 %
13.03.2016 20:00 3,7 C 96 % 1028,9 hPa 0,0 l/m 2,6 km/h (1 Bft) O-SO 0,00 h 0,000 mm 0,0 UV-I 0 W/m 3,1 C 3,6 C 3,5 km/h (1 Bft) 99,06 %
13.03.2016 21:00 3,6 C 95 % 1029,2 hPa 0,0 l/m 6,5 km/h (2 Bft) O-NO 0,00 h 0,000 mm 0,0 UV-I 0 W/m 2,9 C 2,9 C 9,3 km/h (2 Bft) 98,26 %
13.03.2016 22:00 3,2 C 95 % 1029,6 hPa 0,0 l/m 8,1 km/h (2 Bft) O-NO 0,00 h 0,000 mm 0,0 UV-I 0 W/m 2,5 C 1,5 C 11,6 km/h (2 Bft) 98,93 %
13.03.2016 23:00 2,9 C 96 % 1029,6 hPa 0,2 l/m 7,4 km/h (2 Bft) O-NO 0,00 h 0,000 mm 0,0 UV-I 0 W/m 2,3 C 1,7 C 10,3 km/h (2 Bft) 98,07 %
Min-Datum _ 10.03.16 07.03.16 07.03.16 - 07.03.16 - - - - - 10.03.16 09.03.16 07.03.16 11.03.16
_ Min-Zeit 05:11 13:38 14:27 - 03:32 - - - - - 05:11 09:59 03:32 00:02
Minimum _ -2,0 C 60 % 1003,1 hPa - 0,0 km/h (0 Bft) - - - - - -2,6 C -10,2 C 0,0 km/h (0 Bft) 9,09 %
Max-Datum _ 10.03.16 08.03.16 13.03.16 09.03.16 09.03.16 - 09.03.16 09.03.16 10.03.16 07.03.16 10.03.16 10.03.16 09.03.16 07.03.16
_ Max-Zeit 15:38 05:36 23:03 10:02 11:37 - 17:41 14:01 11:56 10:58 13:36 15:38 11:37 00:02
Maximum _ 8,1 C 98 % 1029,8 hPa 2,0 l/m 36,0 km/h
O-NO (5 Bft)
- 0,07 h 0,280 mm 2,5 UV-I 833 W/m 3,8 C 8,1 C 45,1 km/h
O-NO (6 Bft)
100,00 %
Durchschnitt _ 3,2 C 88 % 1016,8 hPa #15,6 l/m 4,8 km/h (1 Bft) NO #16:20 h #5,791 mm 1,0 UV-I 148 W/m 1,3 C 2,3 C 7,0 km/h (2 Bft) 98,56 %